Terminal Aerodrome Forecast
Issued by NWS Cleveland, OH

Home | Current Version | Previous Version | Text Only | Print | Product List | Glossary On
Versions: 1 2 3 4 5 6 7 8 9 10 11 12 13 14 15 16 17 18 19 20 21 22 23 24
000
FTUS41 KCLE 310300 AAC
TAFCAK
TAF AMD
KCAK 310347Z 3104/3124 23004KT P6SM SCT040 BKN100
      TEMPO 3104/3105 3SM -TSRA BKN030CB
     FM310500 24004KT 6SM BR SCT050 BKN100
     FM310700 24004KT 4SM BR SCT060 BKN100
     FM311500 25008KT P6SM SCT045=

USA.gov is the U.S. government's official web portal to all federal, state and local government web resources and services.